Time;durP1;ratioP1;P1;durP2;ratioP2;P2;SDS_P1;SDS_P2;PMS_P1;PMS_P2;Temp;Humidity;BMP_temperature;BMP_pressure;BME280_temperature;BME280_humidity;BME280_pressure;Samples;Min_cycle;Max_cycle;Signal;HPM_P1;HPM_P2
2024/02/13 00:02:04;;;;;;;2.90;1.40;;;22.10;32.20;;;;;;5092700;28;20240;-54
2024/02/13 00:04:33;;;;;;;2.83;1.23;;;22.10;32.20;;;;;;5092604;28;20646;-51
2024/02/13 00:07:00;;;;;;;2.65;1.40;;;22.20;32.20;;;;;;5092748;28;20209;-53
2024/02/13 00:09:28;;;;;;;1.60;0.98;;;22.20;32.20;;;;;;5092471;28;20731;-51
2024/02/13 00:11:55;;;;;;;1.90;1.20;;;22.20;32.20;;;;;;5092705;28;20228;-55
2024/02/13 00:14:22;;;;;;;2.70;1.08;;;22.20;32.20;;;;;;5092276;28;20648;-54
2024/02/13 00:16:49;;;;;;;3.00;1.00;;;22.30;32.20;;;;;;5092648;28;20214;-56
2024/02/13 00:19:16;;;;;;;2.67;1.27;;;22.30;32.20;;;;;;5092228;28;20217;-55
2024/02/13 00:21:43;;;;;;;3.45;1.15;;;22.30;32.20;;;;;;5092504;28;20329;-49
2024/02/13 00:24:10;;;;;;;1.98;1.08;;;22.30;32.10;;;;;;5092734;28;20195;-53
2024/02/13 00:26:39;;;;;;;2.28;1.13;;;22.30;32.10;;;;;;5092282;28;20775;-54
2024/02/13 00:29:05;;;;;;;1.95;1.08;;;22.30;32.10;;;;;;5095308;28;20232;-55
2024/02/13 00:31:33;;;;;;;2.47;1.30;;;22.30;32.00;;;;;;5097256;28;20305;-55
2024/02/13 00:34:00;;;;;;;1.75;1.00;;;22.40;32.00;;;;;;5096603;28;20218;-53
2024/02/13 00:36:27;;;;;;;2.13;1.00;;;22.40;32.00;;;;;;5096208;28;20635;-55
2024/02/13 00:38:54;;;;;;;2.15;1.10;;;22.40;32.00;;;;;;5096472;28;20196;-54
2024/02/13 00:41:21;;;;;;;2.10;1.00;;;22.30;32.00;;;;;;5096337;28;20229;-54
2024/02/13 00:43:49;;;;;;;1.92;1.00;;;22.30;32.10;;;;;;5096356;28;20289;-53
2024/02/13 00:46:16;;;;;;;2.35;1.10;;;22.20;32.00;;;;;;5096031;28;20217;-55
2024/02/13 00:48:43;;;;;;;1.75;0.82;;;22.20;32.10;;;;;;5096129;28;20820;-54
2024/02/13 00:51:10;;;;;;;3.45;1.23;;;22.10;32.10;;;;;;5096238;28;20304;-54
2024/02/13 00:53:37;;;;;;;3.78;1.10;;;22.10;32.20;;;;;;5095821;28;20743;-53
2024/02/13 00:56:06;;;;;;;2.83;0.85;;;22.10;32.20;;;;;;5096045;28;20673;-53
2024/02/13 00:58:33;;;;;;;3.08;1.10;;;22.10;32.30;;;;;;5095938;28;20190;-53
2024/02/13 01:01:03;;;;;;;2.30;0.95;;;22.10;32.30;;;;;;5095605;28;20683;-55
2024/02/13 01:03:30;;;;;;;4.18;1.13;;;22.10;32.40;;;;;;5095983;28;20227;-52
2024/02/13 01:05:57;;;;;;;2.35;1.10;;;22.10;32.40;;;;;;5096152;28;20218;-55
2024/02/13 01:08:24;;;;;;;1.52;0.77;;;22.10;32.40;;;;;;5095781;28;20277;-55
2024/02/13 01:10:51;;;;;;;5.60;1.30;;;22.10;33.10;;;;;;5095797;28;20228;-51
2024/02/13 01:13:18;;;;;;;2.28;1.00;;;22.20;32.50;;;;;;5095709;28;20267;-53
2024/02/13 01:15:45;;;;;;;1.58;1.05;;;22.20;32.50;;;;;;5095481;28;20687;-54
2024/02/13 01:18:15;;;;;;;2.92;1.00;;;22.20;32.40;;;;;;5095857;28;20229;-53
2024/02/13 01:20:42;;;;;;;2.10;0.90;;;22.20;32.40;;;;;;5095708;28;20220;-55
2024/02/13 01:23:11;;;;;;;1.98;0.93;;;22.30;32.50;;;;;;5095635;28;20243;-52
2024/02/13 01:25:39;;;;;;;1.20;0.90;;;22.30;32.50;;;;;;5095407;28;20197;-55
2024/02/13 01:28:07;;;;;;;2.05;0.90;;;22.30;32.40;;;;;;5095286;28;20230;-54
2024/02/13 01:30:34;;;;;;;1.52;0.90;;;22.30;32.30;;;;;;5095578;28;20205;-53
2024/02/13 01:33:01;;;;;;;2.35;1.00;;;22.30;32.40;;;;;;5095413;28;20771;-53
2024/02/13 01:35:29;;;;;;;2.67;0.90;;;22.40;32.40;;;;;;5095068;28;20727;-55
2024/02/13 01:37:57;;;;;;;2.65;1.10;;;22.40;32.40;;;;;;5095289;28;20218;-55
2024/02/13 01:40:24;;;;;;;1.95;0.93;;;22.40;32.40;;;;;;5094617;28;20543;-53
2024/02/13 01:42:51;;;;;;;2.22;1.08;;;22.40;32.30;;;;;;5095408;28;20222;-55
2024/02/13 01:45:18;;;;;;;1.00;0.70;;;22.30;32.20;;;;;;5094971;28;20187;-55
2024/02/13 01:47:46;;;;;;;1.80;1.20;;;22.30;32.30;;;;;;5095244;28;20658;-55
2024/02/13 01:50:17;;;;;;;1.63;0.90;;;22.30;32.40;;;;;;5095057;28;20189;-52
2024/02/13 01:52:48;;;;;;;1.63;0.73;;;22.20;32.40;;;;;;5095261;28;20222;-53
2024/02/13 01:55:17;;;;;;;1.98;0.88;;;22.20;32.50;;;;;;5094981;28;20236;-54
2024/02/13 01:57:45;;;;;;;2.05;0.93;;;22.20;32.50;;;;;;5094831;28;20218;-55
2024/02/13 02:00:14;;;;;;;3.00;1.10;;;22.10;32.50;;;;;;5094824;28;20205;-52
2024/02/13 02:02:43;;;;;;;3.13;1.15;;;22.10;32.50;;;;;;5094647;28;20230;-49
2024/02/13 02:05:11;;;;;;;1.83;1.10;;;22.10;32.60;;;;;;5091476;28;20193;-54
2024/02/13 02:07:40;;;;;;;2.08;1.05;;;22.10;33.30;;;;;;5074671;28;20215;-55
2024/02/13 02:10:09;;;;;;;1.52;1.00;;;22.10;32.70;;;;;;5074850;28;20199;-53
2024/02/13 02:12:36;;;;;;;1.05;0.80;;;22.10;32.70;;;;;;5074303;28;20677;-54
2024/02/13 02:15:04;;;;;;;1.77;1.05;;;22.10;32.60;;;;;;5074133;28;20640;-53
2024/02/13 02:17:31;;;;;;;1.95;0.90;;;22.20;32.70;;;;;;5074659;28;20288;-55
2024/02/13 02:19:58;;;;;;;1.95;0.88;;;22.20;32.70;;;;;;5074008;28;20696;-55
2024/02/13 02:22:25;;;;;;;1.55;0.90;;;22.20;32.70;;;;;;5074006;28;20411;-54
2024/02/13 02:24:52;;;;;;;1.52;0.77;;;22.20;32.60;;;;;;5073928;28;20205;-54
2024/02/13 02:27:20;;;;;;;1.65;0.85;;;22.30;32.70;;;;;;5074231;28;20246;-54
2024/02/13 02:29:47;;;;;;;1.83;1.15;;;22.30;32.70;;;;;;5073794;28;20309;-54
2024/02/13 02:32:14;;;;;;;2.15;1.10;;;22.30;32.60;;;;;;5073914;28;20689;-54
2024/02/13 02:34:41;;;;;;;2.15;1.00;;;22.30;32.60;;;;;;5074015;28;20193;-56
2024/02/13 02:37:08;;;;;;;1.90;1.00;;;22.30;32.60;;;;;;5074080;28;20321;-54
2024/02/13 02:39:34;;;;;;;2.22;0.82;;;22.30;32.60;;;;;;5073556;28;20277;-53
2024/02/13 02:42:02;;;;;;;1.25;0.70;;;22.30;32.60;;;;;;5073520;28;20238;-54
2024/02/13 02:44:30;;;;;;;2.33;0.90;;;22.40;32.60;;;;;;5073827;28;20249;-54
2024/02/13 02:46:57;;;;;;;3.47;1.02;;;22.40;32.50;;;;;;5073540;28;20211;-55
2024/02/13 02:49:24;;;;;;;1.38;0.88;;;22.40;32.50;;;;;;5073355;28;20726;-54
2024/02/13 02:51:51;;;;;;;1.90;0.80;;;22.40;32.50;;;;;;5073067;28;20309;-55
2024/02/13 02:54:18;;;;;;;2.72;1.13;;;22.30;32.50;;;;;;5073631;28;20277;-55
2024/02/13 02:56:45;;;;;;;2.85;1.15;;;22.30;32.60;;;;;;5073627;28;20314;-54
2024/02/13 02:59:12;;;;;;;1.45;0.70;;;22.20;32.60;;;;;;5073148;28;20204;-51
2024/02/13 03:01:41;;;;;;;2.38;1.00;;;22.20;32.70;;;;;;5073392;28;20261;-53
2024/02/13 03:04:08;;;;;;;2.50;0.90;;;22.10;32.70;;;;;;5073530;28;20194;-56
2024/02/13 03:06:35;;;;;;;2.92;1.00;;;22.10;32.80;;;;;;5073342;28;20221;-54
2024/02/13 03:09:03;;;;;;;1.98;0.95;;;22.10;32.90;;;;;;5073371;28;20187;-52
2024/02/13 03:11:31;;;;;;;1.75;0.90;;;22.10;32.90;;;;;;5073476;28;20309;-54
2024/02/13 03:13:58;;;;;;;1.98;0.88;;;22.10;33.00;;;;;;5073208;28;20194;-55
2024/02/13 03:16:25;;;;;;;3.00;1.00;;;22.10;33.00;;;;;;5073169;28;20301;-53
2024/02/13 03:18:53;;;;;;;1.52;1.00;;;22.20;33.10;;;;;;5073066;28;20201;-54
2024/02/13 03:21:21;;;;;;;2.00;1.00;;;22.20;33.00;;;;;;5072999;28;20234;-52
2024/02/13 03:23:48;;;;;;;2.30;0.82;;;22.20;33.00;;;;;;5072774;28;20191;-56
2024/02/13 03:26:15;;;;;;;3.97;1.20;;;22.20;33.00;;;;;;5072649;28;20219;-54
2024/02/13 03:28:42;;;;;;;2.70;1.00;;;22.20;33.00;;;;;;5072578;28;20230;-55
2024/02/13 03:31:09;;;;;;;3.20;1.20;;;22.20;33.00;;;;;;5073115;28;20832;-56
2024/02/13 03:33:36;;;;;;;3.58;1.10;;;22.30;33.00;;;;;;5072859;28;20636;-54
2024/02/13 03:36:05;;;;;;;2.53;0.80;;;22.30;33.00;;;;;;5072734;28;20273;-53
2024/02/13 03:38:33;;;;;;;1.17;0.88;;;22.30;33.00;;;;;;5072451;28;20232;-55
2024/02/13 03:41:02;;;;;;;3.28;0.90;;;22.30;32.90;;;;;;5072637;28;20187;-54
2024/02/13 03:43:28;;;;;;;1.80;0.80;;;22.30;32.90;;;;;;5072665;28;20610;-54
2024/02/13 03:45:55;;;;;;;1.48;1.10;;;22.30;32.90;;;;;;5072766;28;20194;-52
2024/02/13 03:48:22;;;;;;;2.67;0.82;;;22.40;32.90;;;;;;5072354;28;20703;-54
2024/02/13 03:50:49;;;;;;;1.88;0.95;;;22.40;32.90;;;;;;5072859;28;20195;-54
2024/02/13 03:53:17;;;;;;;1.73;0.90;;;22.40;32.80;;;;;;5072823;28;20309;-52
2024/02/13 03:55:44;;;;;;;3.15;1.05;;;22.40;32.80;;;;;;5072600;28;20191;-53
2024/02/13 03:58:12;;;;;;;3.17;0.98;;;22.40;32.80;;;;;;5072722;28;20249;-53
2024/02/13 04:00:40;;;;;;;2.90;1.00;;;22.30;32.80;;;;;;5072170;28;20714;-55
2024/02/13 04:03:07;;;;;;;2.67;1.15;;;22.30;32.90;;;;;;5071710;28;20234;-55
2024/02/13 04:05:37;;;;;;;1.23;0.75;;;22.20;32.90;;;;;;5072541;28;20197;-55
2024/02/13 04:08:06;;;;;;;2.22;0.98;;;22.20;33.10;;;;;;5072702;28;20303;-53
2024/02/13 04:10:34;;;;;;;3.00;1.02;;;22.20;33.80;;;;;;5072146;28;20844;-55
2024/02/13 04:13:01;;;;;;;2.50;1.02;;;22.10;33.20;;;;;;5072688;28;20230;-55
2024/02/13 04:15:28;;;;;;;2.50;1.10;;;22.10;33.20;;;;;;5072368;28;20624;-55
2024/02/13 04:17:55;;;;;;;2.30;1.00;;;22.10;33.20;;;;;;5072536;28;20651;-52
2024/02/13 04:20:22;;;;;;;2.22;0.88;;;22.10;33.20;;;;;;5072278;28;20766;-54
2024/02/13 04:22:49;;;;;;;3.60;1.17;;;22.10;33.90;;;;;;5072444;28;20235;-53
2024/02/13 04:25:16;;;;;;;4.15;1.10;;;22.20;33.30;;;;;;5072320;28;20293;-55
2024/02/13 04:27:45;;;;;;;1.30;1.15;;;22.20;33.30;;;;;;5072190;28;20325;-53
2024/02/13 04:30:13;;;;;;;4.13;1.20;;;22.20;33.30;;;;;;5071979;28;20278;-53
2024/02/13 04:32:40;;;;;;;2.47;1.10;;;22.20;33.30;;;;;;5072418;28;20301;-53
2024/02/13 04:35:08;;;;;;;1.42;1.00;;;22.20;33.30;;;;;;5071970;28;20186;-56
2024/02/13 04:37:35;;;;;;;2.40;1.08;;;22.30;33.30;;;;;;5072258;28;20222;-53
2024/02/13 04:40:03;;;;;;;3.42;1.30;;;22.30;33.30;;;;;;5071796;28;20187;-54
2024/02/13 04:42:34;;;;;;;2.08;1.05;;;22.30;33.30;;;;;;5071887;28;20757;-55
2024/02/13 04:45:03;;;;;;;1.88;0.90;;;22.30;33.30;;;;;;5072085;28;20277;-55
2024/02/13 04:47:30;;;;;;;3.30;1.13;;;22.30;33.30;;;;;;5072208;28;20215;-53
2024/02/13 04:49:59;;;;;;;1.85;0.98;;;22.30;33.30;;;;;;5071965;28;20187;-55
2024/02/13 04:52:25;;;;;;;1.27;1.00;;;22.30;33.20;;;;;;5071811;28;20272;-53
2024/02/13 04:54:53;;;;;;;1.90;0.90;;;22.30;33.90;;;;;;5071996;28;20304;-53
2024/02/13 04:57:20;;;;;;;4.45;1.10;;;22.40;33.20;;;;;;5072167;28;20226;-54
2024/02/13 04:59:48;;;;;;;1.30;1.10;;;22.40;33.20;;;;;;5071950;28;20191;-51
2024/02/13 05:02:19;;;;;;;2.67;1.30;;;22.40;33.10;;;;;;5071810;28;20229;-53
2024/02/13 05:07:30;;;;;;;1.58;0.98;;;22.30;33.30;;;;;;5072067;28;20261;-55
2024/02/13 05:09:58;;;;;;;3.83;1.20;;;22.20;33.30;;;;;;5071762;28;20210;-55
2024/02/13 05:12:24;;;;;;;1.60;1.20;;;22.20;33.30;;;;;;5071922;28;20229;-55
2024/02/13 05:14:52;;;;;;;2.10;0.90;;;22.10;33.20;;;;;;5074219;28;20604;-52
2024/02/13 05:17:21;;;;;;;2.97;1.30;;;22.10;33.20;;;;;;5075580;28;20301;-54
2024/02/13 05:19:48;;;;;;;3.65;1.10;;;22.10;33.20;;;;;;5075633;28;20610;-55
2024/02/13 05:22:16;;;;;;;2.60;1.40;;;22.10;33.20;;;;;;5075073;28;20696;-53
2024/02/13 05:24:43;;;;;;;2.60;1.20;;;22.10;33.20;;;;;;5075262;28;20198;-55
2024/02/13 05:27:10;;;;;;;1.50;1.08;;;22.10;33.30;;;;;;5075375;28;20215;-55
2024/02/13 05:29:38;;;;;;;2.80;1.20;;;22.10;33.20;;;;;;5074999;28;20238;-53
2024/02/13 05:32:06;;;;;;;4.18;1.20;;;22.20;33.30;;;;;;5075012;28;20253;-55
2024/02/13 05:34:35;;;;;;;2.90;1.30;;;22.20;33.30;;;;;;5075158;28;20282;-55
2024/02/13 05:37:02;;;;;;;2.22;1.30;;;22.20;33.30;;;;;;5075181;28;20210;-55
2024/02/13 05:39:29;;;;;;;2.88;1.20;;;22.20;33.30;;;;;;5075185;28;20286;-54
2024/02/13 05:41:56;;;;;;;2.38;1.20;;;22.20;33.30;;;;;;5074805;28;20689;-53
2024/02/13 05:44:23;;;;;;;5.00;1.45;;;22.30;33.30;;;;;;5074744;28;20225;-55
2024/02/13 05:46:51;;;;;;;3.58;1.23;;;22.30;33.30;;;;;;5074939;28;20590;-54
2024/02/13 05:49:18;;;;;;;2.70;1.10;;;22.30;33.30;;;;;;5074550;28;20277;-55
2024/02/13 05:51:46;;;;;;;1.98;1.13;;;22.30;34.00;;;;;;5074758;28;20214;-56
2024/02/13 05:54:14;;;;;;;2.53;1.55;;;22.30;33.30;;;;;;5074804;28;20277;-53
2024/02/13 05:56:41;;;;;;;2.97;1.30;;;22.30;33.30;;;;;;5074713;28;20219;-55
2024/02/13 05:59:09;;;;;;;1.90;1.13;;;22.40;34.10;;;;;;5074646;28;20191;-56
2024/02/13 06:01:36;;;;;;;2.90;1.23;;;22.40;33.40;;;;;;5074833;28;20225;-53
2024/02/13 06:04:05;;;;;;;3.53;1.40;;;22.40;33.40;;;;;;5074260;28;20735;-54
2024/02/13 06:06:34;;;;;;;2.38;1.35;;;22.40;33.40;;;;;;5074519;28;20612;-55
2024/02/13 06:09:02;;;;;;;2.25;1.10;;;22.30;33.30;;;;;;5074186;28;20301;-54
2024/02/13 06:11:29;;;;;;;2.30;1.30;;;22.30;33.30;;;;;;5074399;28;20764;-54
2024/02/13 06:13:56;;;;;;;2.40;1.33;;;22.20;33.30;;;;;;5074465;28;20195;-55
2024/02/13 06:16:22;;;;;;;1.95;1.40;;;22.20;33.30;;;;;;5074535;28;20256;-52
2024/02/13 06:18:49;;;;;;;3.00;1.38;;;22.20;33.30;;;;;;5074285;28;20274;-54
2024/02/13 06:21:19;;;;;;;3.42;1.38;;;22.20;33.30;;;;;;5074237;28;20289;-55
2024/02/13 06:23:47;;;;;;;4.05;1.48;;;22.10;33.30;;;;;;5074452;28;20225;-55
2024/02/13 06:26:15;;;;;;;3.03;1.25;;;22.10;33.50;;;;;;5073163;28;20187;-56
2024/02/13 06:28:42;;;;;;;3.70;1.30;;;22.10;33.60;;;;;;5073806;28;20313;-53
2024/02/13 06:31:08;;;;;;;1.70;1.13;;;22.10;33.60;;;;;;5074233;28;20281;-55
2024/02/13 06:33:35;;;;;;;2.60;1.20;;;22.10;33.60;;;;;;5074070;28;20273;-54
2024/02/13 06:36:03;;;;;;;4.32;1.48;;;22.20;33.60;;;;;;5073972;28;20183;-56
2024/02/13 06:38:29;;;;;;;1.98;1.20;;;22.20;33.60;;;;;;5074221;28;20305;-55
2024/02/13 06:40:59;;;;;;;2.13;1.10;;;22.20;33.50;;;;;;5073729;28;20649;-54
2024/02/13 06:43:27;;;;;;;2.90;1.25;;;22.20;33.60;;;;;;5073989;28;20317;-53
2024/02/13 06:45:55;;;;;;;2.45;1.25;;;22.30;33.60;;;;;;5073799;28;20277;-55
2024/02/13 06:48:22;;;;;;;2.45;1.50;;;22.30;33.50;;;;;;5074087;28;20221;-54
2024/02/13 06:50:49;;;;;;;2.75;1.60;;;22.30;33.50;;;;;;5073666;28;20209;-55
2024/02/13 06:53:16;;;;;;;3.10;1.30;;;22.30;33.40;;;;;;5073816;28;20219;-53
2024/02/13 06:55:43;;;;;;;3.42;1.48;;;22.30;33.40;;;;;;5073604;28;20193;-55
2024/02/13 06:58:11;;;;;;;2.88;1.40;;;22.30;33.30;;;;;;5073687;28;20215;-54
2024/02/13 07:00:39;;;;;;;3.60;1.23;;;22.30;33.30;;;;;;5073095;28;20571;-54
2024/02/13 07:03:06;;;;;;;2.33;1.40;;;22.30;33.40;;;;;;5073500;28;20260;-52
2024/02/13 07:05:33;;;;;;;2.85;1.42;;;22.30;33.30;;;;;;5073379;28;20274;-56
2024/02/13 07:07:59;;;;;;;1.35;1.05;;;22.40;33.40;;;;;;5073639;28;20257;-53
2024/02/13 07:10:26;;;;;;;2.55;1.40;;;22.40;33.50;;;;;;5073252;28;20270;-54
2024/02/13 07:12:55;;;;;;;2.47;1.52;;;22.30;33.30;;;;;;5073374;28;20640;-55
2024/02/13 07:15:22;;;;;;;3.10;1.27;;;22.30;33.30;;;;;;5073250;28;20275;-53
2024/02/13 07:17:50;;;;;;;2.58;1.30;;;22.30;33.40;;;;;;5073170;28;20306;-55
2024/02/13 07:20:17;;;;;;;2.72;1.38;;;22.20;33.40;;;;;;5073113;28;20274;-54
2024/02/13 07:22:45;;;;;;;3.13;1.25;;;22.20;33.60;;;;;;5073082;28;20233;-55
2024/02/13 07:25:13;;;;;;;3.05;1.40;;;22.20;33.70;;;;;;5073060;28;20187;-53
2024/02/13 07:27:41;;;;;;;2.85;1.60;;;22.10;33.70;;;;;;5073121;28;20225;-55
2024/02/13 07:30:11;;;;;;;2.10;1.25;;;22.10;34.40;;;;;;5072568;28;20193;-52
2024/02/13 07:32:39;;;;;;;2.35;1.20;;;22.10;33.80;;;;;;5073081;28;20215;-55
2024/02/13 07:35:08;;;;;;;2.22;1.40;;;22.10;33.90;;;;;;5070491;28;20205;-54
2024/02/13 07:37:36;;;;;;;1.60;1.40;;;22.10;33.80;;;;;;5075740;28;20223;-55
2024/02/13 07:40:03;;;;;;;1.80;1.30;;;22.10;34.40;;;;;;5071704;28;20187;-55
2024/02/13 07:42:30;;;;;;;2.38;1.33;;;22.20;33.80;;;;;;5070771;28;20248;-55
2024/02/13 07:44:58;;;;;;;5.07;1.75;;;22.20;33.80;;;;;;5072057;28;20197;-55
2024/02/13 07:47:25;;;;;;;2.58;1.88;;;22.20;33.80;;;;;;5072664;28;20322;-54
2024/02/13 07:49:53;;;;;;;4.40;1.70;;;22.20;33.80;;;;;;5072235;28;20186;-55
2024/02/13 07:52:21;;;;;;;2.92;1.40;;;22.20;33.70;;;;;;5072612;28;20295;-53
2024/02/13 07:54:49;;;;;;;2.85;1.70;;;22.30;33.80;;;;;;5072081;28;20186;-56
2024/02/13 07:57:16;;;;;;;1.83;1.20;;;22.30;33.70;;;;;;5077621;28;20222;-55
2024/02/13 07:59:43;;;;;;;6.25;1.45;;;22.30;33.80;;;;;;5086139;28;20198;-56
2024/02/13 08:02:11;;;;;;;5.55;1.40;;;22.30;33.70;;;;;;5092041;28;20763;-56
2024/02/13 08:04:38;;;;;;;3.80;1.23;;;22.30;33.60;;;;;;5081402;28;20214;-55
2024/02/13 08:07:07;;;;;;;3.58;1.33;;;22.40;33.60;;;;;;5077782;28;20213;-56
2024/02/13 08:09:36;;;;;;;4.10;1.50;;;22.50;33.70;;;;;;5086865;28;20239;-56
2024/02/13 08:12:05;;;;;;;2.05;1.30;;;22.50;33.70;;;;;;5080143;28;20300;-55
2024/02/13 08:14:36;;;;;;;2.33;1.30;;;22.50;33.70;;;;;;5072025;28;20203;-56
2024/02/13 08:17:06;;;;;;;3.35;1.40;;;22.50;33.70;;;;;;5083050;28;20217;-56
2024/02/13 08:19:33;;;;;;;3.03;1.30;;;22.50;33.70;;;;;;5088189;28;20627;-54
2024/02/13 08:22:03;;;;;;;4.75;1.48;;;22.50;33.90;;;;;;5089167;28;20296;-55
2024/02/13 08:24:30;;;;;;;2.30;1.33;;;22.50;34.00;;;;;;5089763;28;20241;-56
2024/02/13 08:26:59;;;;;;;3.47;1.30;;;22.50;34.10;;;;;;5091845;28;20221;-55
2024/02/13 08:29:26;;;;;;;2.33;1.50;;;22.50;34.10;;;;;;5089339;28;20245;-55
2024/02/13 08:31:54;;;;;;;2.65;1.50;;;22.50;34.20;;;;;;5091024;28;20293;-56
2024/02/13 08:34:21;;;;;;;2.67;1.30;;;22.50;34.20;;;;;;5086926;28;20544;-55
2024/02/13 08:36:48;;;;;;;4.53;1.48;;;22.50;34.30;;;;;;5090204;28;20257;-55
2024/02/13 08:39:15;;;;;;;4.80;1.27;;;22.50;34.30;;;;;;5089781;28;20269;-56
2024/02/13 08:41:42;;;;;;;2.83;1.50;;;22.40;34.30;;;;;;5090328;28;20222;-53
2024/02/13 08:44:10;;;;;;;1.52;1.25;;;22.40;34.40;;;;;;5090692;28;20301;-56
2024/02/13 08:46:37;;;;;;;2.90;1.50;;;22.40;34.50;;;;;;5083537;28;20243;-55
2024/02/13 08:49:04;;;;;;;1.70;1.38;;;22.40;34.50;;;;;;5081440;28;20263;-56
2024/02/13 08:51:31;;;;;;;1.70;1.30;;;22.40;34.50;;;;;;5076229;28;20256;-57
2024/02/13 08:53:58;;;;;;;3.40;1.42;;;22.40;34.50;;;;;;5075245;28;20270;-55
2024/02/13 08:56:25;;;;;;;2.60;1.45;;;22.40;34.50;;;;;;5074901;28;20276;-55
2024/02/13 08:58:53;;;;;;;2.97;1.33;;;22.40;34.50;;;;;;5072465;28;20744;-55
2024/02/13 09:01:22;;;;;;;3.17;1.33;;;22.40;34.60;;;;;;5073738;28;20191;-55
2024/02/13 09:03:49;;;;;;;5.63;1.50;;;22.50;34.70;;;;;;5074069;28;20708;-56
2024/02/13 09:06:17;;;;;;;2.97;1.38;;;22.50;35.50;;;;;;5102305;28;20194;-55
2024/02/13 09:08:44;;;;;;;7.95;1.25;;;22.50;34.80;;;;;;5090647;28;20218;-56
2024/02/13 09:11:13;;;;;;;4.68;1.25;;;22.50;34.80;;;;;;5079861;28;20195;-56
2024/02/13 09:13:40;;;;;;;3.85;1.40;;;22.60;34.90;;;;;;5083226;28;20214;-55
2024/02/13 09:16:08;;;;;;;5.50;1.40;;;22.60;35.00;;;;;;5094206;28;20190;-56
2024/02/13 09:18:38;;;;;;;2.13;1.00;;;22.60;35.00;;;;;;5091676;28;20213;-56
2024/02/13 09:21:06;;;;;;;9.30;1.20;;;22.60;35.00;;;;;;5074254;28;20668;-55
2024/02/13 09:23:35;;;;;;;2.58;1.30;;;22.60;35.10;;;;;;5090121;28;20317;-63
2024/02/13 09:26:05;;;;;;;2.35;1.25;;;22.70;35.10;;;;;;5094852;28;20212;-56
2024/02/13 09:28:32;;;;;;;4.15;1.15;;;22.70;35.30;;;;;;5094327;28;20717;-55
2024/02/13 09:30:59;;;;;;;4.10;1.30;;;22.70;35.20;;;;;;5093059;28;20282;-57
2024/02/13 09:33:26;;;;;;;6.88;1.33;;;22.70;35.30;;;;;;5094278;28;20300;-53
2024/02/13 09:35:54;;;;;;;2.20;1.23;;;22.70;35.40;;;;;;5093171;28;20273;-54
2024/02/13 09:38:21;;;;;;;3.10;1.45;;;22.70;35.40;;;;;;5087085;28;20215;-55
2024/02/13 09:40:49;;;;;;;3.05;1.25;;;22.60;35.40;;;;;;5078700;28;20304;-55
2024/02/13 09:43:16;;;;;;;5.82;1.90;;;22.70;35.40;;;;;;5078261;28;20226;-56
2024/02/13 09:45:44;;;;;;;7.70;1.67;;;22.70;35.50;;;;;;5075122;28;20552;-56
2024/02/13 09:48:21;;;;;;;4.78;1.30;;;22.60;35.40;;;;;;5093561;28;20217;-56
2024/02/13 09:50:50;;;;;;;3.70;1.20;;;22.70;35.60;;;;;;5094101;28;20204;-55
2024/02/13 09:53:27;;;;;;;3.63;1.23;;;22.70;35.50;;;;;;5095312;28;20216;-56
2024/02/13 09:55:54;;;;;;;5.85;1.30;;;22.80;35.50;;;;;;5073652;28;20204;-56
2024/02/13 09:58:22;;;;;;;2.30;1.23;;;22.80;35.50;;;;;;5092709;28;20214;-55
2024/02/13 10:00:49;;;;;;;3.53;1.45;;;22.80;35.50;;;;;;5093991;28;20197;-55
2024/02/13 10:03:16;;;;;;;3.40;1.48;;;22.80;35.50;;;;;;5091619;28;20310;-56
2024/02/13 10:05:43;;;;;;;11.77;6.22;;;22.80;35.60;;;;;;5094221;28;20599;-55
2024/02/13 10:08:11;;;;;;;10.93;4.72;;;22.90;35.80;;;;;;5093778;28;20661;-56
2024/02/13 10:10:42;;;;;;;4.60;2.95;;;22.90;35.70;;;;;;5093816;28;20195;-56
2024/02/13 10:13:12;;;;;;;9.40;6.20;;;23.00;35.60;;;;;;5093542;28;20292;-56
2024/02/13 10:15:39;;;;;;;13.00;4.85;;;23.10;35.70;;;;;;5090271;28;20186;-56
2024/02/13 10:18:08;;;;;;;12.98;4.13;;;23.10;35.60;;;;;;5092638;28;20633;-56
2024/02/13 10:20:38;;;;;;;5.53;3.50;;;23.20;35.60;;;;;;5078124;28;20221;-53
2024/02/13 10:23:05;;;;;;;5.03;2.50;;;23.20;35.40;;;;;;5087786;28;20592;-55
2024/02/13 10:25:33;;;;;;;8.70;2.22;;;23.30;35.40;;;;;;5090431;28;20186;-56
2024/02/13 10:28:02;;;;;;;4.18;1.90;;;23.30;35.30;;;;;;5085409;28;20214;-56
2024/02/13 10:30:31;;;;;;;3.60;1.70;;;23.30;35.20;;;;;;5087531;28;20259;-57
2024/02/13 10:33:00;;;;;;;3.05;1.42;;;23.30;35.10;;;;;;5091104;28;20746;-56
2024/02/13 10:35:29;;;;;;;3.50;1.80;;;23.30;35.10;;;;;;5086384;28;20200;-56
2024/02/13 10:37:57;;;;;;;2.58;1.50;;;23.30;35.10;;;;;;5106137;28;20213;-56
2024/02/13 10:40:26;;;;;;;3.30;1.40;;;23.20;35.10;;;;;;5090439;28;20186;-56
2024/02/13 10:42:54;;;;;;;5.60;1.50;;;23.20;35.10;;;;;;5092662;28;20210;-56
2024/02/13 10:45:24;;;;;;;3.15;1.25;;;23.20;35.80;;;;;;5092132;28;20582;-56
2024/02/13 10:47:54;;;;;;;4.13;1.30;;;23.30;35.30;;;;;;5091533;28;20268;-56
2024/02/13 10:50:21;;;;;;;3.20;1.20;;;23.20;35.20;;;;;;5091968;28;20190;-56
2024/02/13 10:52:52;;;;;;;3.85;1.40;;;23.20;35.30;;;;;;5090812;28;20729;-56
2024/02/13 10:55:19;;;;;;;2.28;1.33;;;23.10;35.30;;;;;;5093039;28;20200;-56
2024/02/13 10:57:49;;;;;;;3.90;1.27;;;23.10;35.40;;;;;;5092266;28;20307;-55
2024/02/13 11:00:19;;;;;;;2.38;1.33;;;23.10;35.40;;;;;;5091497;28;20192;-56
2024/02/13 11:02:51;;;;;;;2.13;1.15;;;23.10;35.40;;;;;;5090899;28;20817;-56
2024/02/13 11:05:19;;;;;;;4.05;1.00;;;23.10;35.50;;;;;;5090454;28;20852;-55
2024/02/13 11:07:47;;;;;;;2.25;1.35;;;23.00;35.50;;;;;;5092878;28;20249;-56
2024/02/13 11:10:14;;;;;;;3.00;1.25;;;23.00;35.60;;;;;;5092427;28;20281;-56
2024/02/13 11:12:44;;;;;;;5.57;1.08;;;23.00;35.60;;;;;;5092131;28;20669;-56
2024/02/13 11:15:15;;;;;;;3.95;1.33;;;23.00;35.60;;;;;;5090292;28;20182;-56
2024/02/13 11:17:46;;;;;;;2.35;0.85;;;23.00;35.70;;;;;;5092443;28;20715;-57
2024/02/13 11:20:16;;;;;;;1.92;0.88;;;23.00;35.80;;;;;;5090918;28;20221;-56
2024/02/13 11:22:52;;;;;;;3.42;1.10;;;22.90;35.70;;;;;;5092838;28;20322;-57
2024/02/13 11:25:25;;;;;;;5.60;1.13;;;22.90;35.70;;;;;;5092260;28;20209;-56
2024/02/13 11:27:57;;;;;;;2.47;1.08;;;23.00;35.70;;;;;;5090615;28;20217;-56
2024/02/13 11:30:24;;;;;;;1.33;0.93;;;23.00;35.70;;;;;;5092475;28;20205;-55
2024/02/13 11:32:58;;;;;;;2.60;1.00;;;23.00;35.70;;;;;;5092321;28;20217;-56
2024/02/13 11:35:31;;;;;;;1.27;0.77;;;23.00;35.70;;;;;;5090282;28;20305;-54
2024/02/13 11:38:01;;;;;;;3.47;0.98;;;23.00;35.60;;;;;;5090389;28;20218;-57
2024/02/13 11:40:28;;;;;;;3.00;1.02;;;23.00;35.70;;;;;;5091520;28;20190;-55
2024/02/13 11:42:57;;;;;;;3.63;1.00;;;23.00;35.90;;;;;;5092263;28;20304;-56
2024/02/13 11:45:26;;;;;;;1.98;1.00;;;23.00;35.90;;;;;;5090382;28;20352;-56
2024/02/13 11:47:53;;;;;;;4.25;0.95;;;22.90;35.90;;;;;;5092213;28;20576;-53
2024/02/13 11:50:21;;;;;;;2.65;1.10;;;22.90;35.90;;;;;;5090164;28;20240;-55
2024/02/13 11:52:50;;;;;;;4.95;1.10;;;22.90;36.10;;;;;;5092099;28;20695;-56
2024/02/13 11:55:19;;;;;;;2.35;1.00;;;22.80;36.20;;;;;;5090058;28;20181;-55
2024/02/13 11:57:46;;;;;;;2.13;0.98;;;22.80;36.20;;;;;;5092531;28;20719;-55
2024/02/13 12:00:18;;;;;;;1.60;0.90;;;22.80;36.40;;;;;;5096721;28;20189;-56
2024/02/13 12:02:49;;;;;;;1.63;1.00;;;22.70;36.40;;;;;;5091932;28;20229;-57
2024/02/13 12:05:16;;;;;;;2.97;1.00;;;22.70;36.60;;;;;;5091264;28;20221;-54
2024/02/13 12:07:43;;;;;;;1.50;1.00;;;22.70;36.60;;;;;;5073400;28;20756;-55
2024/02/13 12:10:14;;;;;;;1.40;0.80;;;22.70;36.70;;;;;;5098661;28;20281;-56
2024/02/13 12:12:42;;;;;;;3.10;1.10;;;22.70;36.70;;;;;;5090213;28;20217;-57
2024/02/13 12:15:10;;;;;;;5.57;1.13;;;22.70;36.70;;;;;;5091642;28;20652;-56
2024/02/13 12:17:38;;;;;;;1.98;0.93;;;22.70;36.80;;;;;;5088754;28;20226;-56
2024/02/13 12:20:12;;;;;;;2.70;1.00;;;22.70;36.90;;;;;;5091662;28;20190;-56
2024/02/13 12:22:43;;;;;;;2.17;1.00;;;22.70;36.80;;;;;;5098293;28;20213;-56
2024/02/13 12:25:18;;;;;;;2.70;1.00;;;22.70;36.90;;;;;;5115049;28;20686;-56
2024/02/13 12:27:45;;;;;;;1.92;0.70;;;22.70;37.00;;;;;;5103200;28;20210;-55
2024/02/13 12:30:12;;;;;;;2.17;1.10;;;22.70;37.00;;;;;;5095695;28;20754;-56
2024/02/13 12:32:40;;;;;;;1.90;0.90;;;22.70;37.00;;;;;;5094162;28;20218;-55
2024/02/13 12:35:21;;;;;;;3.10;1.10;;;22.80;37.10;;;;;;5090169;28;20221;-56
2024/02/13 12:37:51;;;;;;;2.05;0.98;;;22.80;37.10;;;;;;5082315;28;20283;-56
2024/02/13 12:40:22;;;;;;;2.22;0.98;;;22.80;37.10;;;;;;5074571;28;20187;-55
2024/02/13 12:42:49;;;;;;;1.40;0.70;;;22.80;37.20;;;;;;5087853;28;20222;-55
2024/02/13 12:45:19;;;;;;;5.00;0.90;;;22.80;37.20;;;;;;5094621;28;20248;-55
2024/02/13 12:47:46;;;;;;;2.20;0.80;;;22.70;37.20;;;;;;5093238;28;20218;-56
2024/02/13 12:50:16;;;;;;;1.85;1.10;;;22.70;37.20;;;;;;5094146;28;20735;-56
2024/02/13 12:52:44;;;;;;;2.47;0.90;;;22.70;37.30;;;;;;5094005;28;20630;-55